sensor_id;sensor_type;location;lat;lon;timestamp;temperature;humidity
17007;DHT22;8620;51.168;4.154;2023-06-26T07:01:19;31.00;99.90
17007;DHT22;8620;51.168;4.154;2023-06-26T07:03:48;28.70;99.90
17007;DHT22;8620;51.168;4.154;2023-06-26T07:06:20;28.10;99.90
17007;DHT22;8620;51.168;4.154;2023-06-26T07:08:49;26.60;99.90
17007;DHT22;8620;51.168;4.154;2023-06-26T07:11:15;25.30;99.90
17007;DHT22;8620;51.168;4.154;2023-06-26T07:13:44;25.60;99.90
17007;DHT22;8620;51.168;4.154;2023-06-26T07:16:10;25.80;99.90
17007;DHT22;8620;51.168;4.154;2023-06-26T07:18:40;25.30;99.90
17007;DHT22;8620;51.168;4.154;2023-06-26T07:21:08;25.40;99.90
17007;DHT22;8620;51.168;4.154;2023-06-26T07:23:34;25.90;99.90
17007;DHT22;8620;51.168;4.154;2023-06-26T07:26:08;26.30;99.90
17007;DHT22;8620;51.168;4.154;2023-06-26T07:28:37;27.00;99.90
17007;DHT22;8620;51.168;4.154;2023-06-26T07:31:05;26.50;99.90
17007;DHT22;8620;51.168;4.154;2023-06-26T07:33:31;26.30;99.90
17007;DHT22;8620;51.168;4.154;2023-06-26T07:35:59;26.30;99.90
17007;DHT22;8620;51.168;4.154;2023-06-26T07:38:33;27.00;99.90
17007;DHT22;8620;51.168;4.154;2023-06-26T07:41:06;27.90;99.90
17007;DHT22;8620;51.168;4.154;2023-06-26T07:43:37;28.60;99.90
17007;DHT22;8620;51.168;4.154;2023-06-26T07:46:08;29.60;99.90
17007;DHT22;8620;51.168;4.154;2023-06-26T07:48:39;30.10;99.90
17007;DHT22;8620;51.168;4.154;2023-06-26T07:51:11;30.80;99.90
17007;DHT22;8620;51.168;4.154;2023-06-26T07:53:39;30.70;99.90
17007;DHT22;8620;51.168;4.154;2023-06-26T07:56:08;30.80;99.90
17007;DHT22;8620;51.168;4.154;2023-06-26T07:58:37;31.30;99.90
17007;DHT22;8620;51.168;4.154;2023-06-26T08:01:05;31.30;99.90
17007;DHT22;8620;51.168;4.154;2023-06-26T08:03:34;29.90;99.90
17007;DHT22;8620;51.168;4.154;2023-06-26T08:06:04;27.90;99.90
17007;DHT22;8620;51.168;4.154;2023-06-26T08:08:38;27.70;99.90
17007;DHT22;8620;51.168;4.154;2023-06-26T08:11:09;25.80;99.90
17007;DHT22;8620;51.168;4.154;2023-06-26T08:13:37;26.20;99.90
17007;DHT22;8620;51.168;4.154;2023-06-26T08:16:06;27.20;99.90
17007;DHT22;8620;51.168;4.154;2023-06-26T08:18:34;28.10;99.90
17007;DHT22;8620;51.168;4.154;2023-06-26T08:21:03;29.20;99.90
17007;DHT22;8620;51.168;4.154;2023-06-26T08:23:34;29.90;99.90
17007;DHT22;8620;51.168;4.154;2023-06-26T08:26:00;30.70;99.90
17007;DHT22;8620;51.168;4.154;2023-06-26T08:28:29;28.80;99.90
17007;DHT22;8620;51.168;4.154;2023-06-26T08:31:00;29.30;99.90
17007;DHT22;8620;51.168;4.154;2023-06-26T08:33:28;29.80;99.90
17007;DHT22;8620;51.168;4.154;2023-06-26T08:35:54;30.30;99.90
17007;DHT22;8620;51.168;4.154;2023-06-26T08:38:23;28.80;99.90
17007;DHT22;8620;51.168;4.154;2023-06-26T08:40:49;28.80;99.90
17007;DHT22;8620;51.168;4.154;2023-06-26T08:43:17;29.70;99.90
17007;DHT22;8620;51.168;4.154;2023-06-26T08:45:48;30.60;99.90
17007;DHT22;8620;51.168;4.154;2023-06-26T08:48:22;31.00;99.90
17007;DHT22;8620;51.168;4.154;2023-06-26T08:51:00;31.20;99.90
17007;DHT22;8620;51.168;4.154;2023-06-26T08:53:52;31.50;99.90
17007;DHT22;8620;51.168;4.154;2023-06-26T08:56:32;31.90;99.90
17007;DHT22;8620;51.168;4.154;2023-06-26T08:59:05;32.20;99.80
17007;DHT22;8620;51.168;4.154;2023-06-26T09:01:32;32.20;99.50
17007;DHT22;8620;51.168;4.154;2023-06-26T09:03:58;31.60;99.30
17007;DHT22;8620;51.168;4.154;2023-06-26T09:06:24;29.00;99.90
17007;DHT22;8620;51.168;4.154;2023-06-26T09:08:50;28.00;99.90
17007;DHT22;8620;51.168;4.154;2023-06-26T09:11:16;28.80;99.90
17007;DHT22;8620;51.168;4.154;2023-06-26T09:13:46;30.20;99.90
17007;DHT22;8620;51.168;4.154;2023-06-26T09:16:23;29.40;99.90
17007;DHT22;8620;51.168;4.154;2023-06-26T09:18:56;29.70;99.90
17007;DHT22;8620;51.168;4.154;2023-06-26T09:21:30;26.80;99.90
17007;DHT22;8620;51.168;4.154;2023-06-26T09:23:59;26.60;99.90
17007;DHT22;8620;51.168;4.154;2023-06-26T09:26:27;27.70;99.90
17007;DHT22;8620;51.168;4.154;2023-06-26T09:28:55;29.00;99.90
17007;DHT22;8620;51.168;4.154;2023-06-26T09:31:26;29.20;99.90
17007;DHT22;8620;51.168;4.154;2023-06-26T09:34:01;27.90;99.90
17007;DHT22;8620;51.168;4.154;2023-06-26T09:36:30;26.90;99.90
17007;DHT22;8620;51.168;4.154;2023-06-26T09:39:04;28.00;99.90
17007;DHT22;8620;51.168;4.154;2023-06-26T09:41:37;27.80;99.90
17007;DHT22;8620;51.168;4.154;2023-06-26T09:44:12;27.20;99.90
17007;DHT22;8620;51.168;4.154;2023-06-26T09:46:39;26.00;99.90
17007;DHT22;8620;51.168;4.154;2023-06-26T09:49:08;25.70;99.90
17007;DHT22;8620;51.168;4.154;2023-06-26T09:51:40;27.00;99.90
17007;DHT22;8620;51.168;4.154;2023-06-26T09:54:10;28.60;99.90
17007;DHT22;8620;51.168;4.154;2023-06-26T09:56:41;27.50;99.90
17007;DHT22;8620;51.168;4.154;2023-06-26T09:59:09;27.20;99.90
17007;DHT22;8620;51.168;4.154;2023-06-26T10:01:41;28.70;99.90
17007;DHT22;8620;51.168;4.154;2023-06-26T10:04:08;29.70;98.80
17007;DHT22;8620;51.168;4.154;2023-06-26T10:06:46;27.00;99.90
17007;DHT22;8620;51.168;4.154;2023-06-26T10:09:14;27.20;99.90
17007;DHT22;8620;51.168;4.154;2023-06-26T10:14:36;29.20;98.70
17007;DHT22;8620;51.168;4.154;2023-06-26T10:17:10;30.00;98.40
17007;DHT22;8620;51.168;4.154;2023-06-26T10:19:38;30.80;98.90
17007;DHT22;8620;51.168;4.154;2023-06-26T10:33:37;27.20;99.20
17007;DHT22;8620;51.168;4.154;2023-06-26T10:36:20;26.80;99.90
17007;DHT22;8620;51.168;4.154;2023-06-26T10:38:55;27.80;99.50
17007;DHT22;8620;51.168;4.154;2023-06-26T10:41:28;28.90;99.50
17007;DHT22;8620;51.168;4.154;2023-06-26T10:46:33;28.40;98.60
17007;DHT22;8620;51.168;4.154;2023-06-26T10:49:13;29.50;98.40
17007;DHT22;8620;51.168;4.154;2023-06-26T10:52:02;29.90;98.90
17007;DHT22;8620;51.168;4.154;2023-06-26T10:54:31;30.10;98.40
17007;DHT22;8620;51.168;4.154;2023-06-26T10:56:57;29.60;97.10
17007;DHT22;8620;51.168;4.154;2023-06-26T10:59:30;29.70;97.00
17007;DHT22;8620;51.168;4.154;2023-06-26T11:02:06;29.60;97.50
17007;DHT22;8620;51.168;4.154;2023-06-26T11:07:24;26.90;99.60
17007;DHT22;8620;51.168;4.154;2023-06-26T11:10:02;27.10;99.90
17007;DHT22;8620;51.168;4.154;2023-06-26T11:12:43;27.80;99.60
17007;DHT22;8620;51.168;4.154;2023-06-26T11:15:15;28.50;98.90
17007;DHT22;8620;51.168;4.154;2023-06-26T11:17:45;28.50;98.90
17007;DHT22;8620;51.168;4.154;2023-06-26T11:20:17;28.10;98.80
17007;DHT22;8620;51.168;4.154;2023-06-26T11:22:52;28.10;99.40
17007;DHT22;8620;51.168;4.154;2023-06-26T11:25:19;28.90;98.80
17007;DHT22;8620;51.168;4.154;2023-06-26T11:27:47;29.20;98.30
17007;DHT22;8620;51.168;4.154;2023-06-26T11:30:52;30.10;96.70
17007;DHT22;8620;51.168;4.154;2023-06-26T11:33:45;28.80;96.10
17007;DHT22;8620;51.168;4.154;2023-06-26T11:36:14;26.30;98.90
17007;DHT22;8620;51.168;4.154;2023-06-26T11:38:43;25.50;99.90
17007;DHT22;8620;51.168;4.154;2023-06-26T11:41:17;26.90;99.90
17007;DHT22;8620;51.168;4.154;2023-06-26T11:43:43;28.90;99.80
17007;DHT22;8620;51.168;4.154;2023-06-26T11:46:20;30.20;97.80
17007;DHT22;8620;51.168;4.154;2023-06-26T11:48:49;30.40;96.90
17007;DHT22;8620;51.168;4.154;2023-06-26T11:51:16;28.50;97.40
17007;DHT22;8620;51.168;4.154;2023-06-26T11:53:45;27.60;98.20
17007;DHT22;8620;51.168;4.154;2023-06-26T11:56:19;27.10;97.90
17007;DHT22;8620;51.168;4.154;2023-06-26T11:59:05;26.90;97.70
17007;DHT22;8620;51.168;4.154;2023-06-26T12:01:39;25.50;98.80
17007;DHT22;8620;51.168;4.154;2023-06-26T12:04:17;25.20;99.80
17007;DHT22;8620;51.168;4.154;2023-06-26T12:06:57;26.10;99.10
17007;DHT22;8620;51.168;4.154;2023-06-26T12:09:24;27.10;98.90
17007;DHT22;8620;51.168;4.154;2023-06-26T12:12:00;26.50;97.80
17007;DHT22;8620;51.168;4.154;2023-06-26T12:14:40;27.10;98.60
17007;DHT22;8620;51.168;4.154;2023-06-26T12:17:12;27.60;99.00
17007;DHT22;8620;51.168;4.154;2023-06-26T12:19:50;27.90;97.70
17007;DHT22;8620;51.168;4.154;2023-06-26T12:22:18;28.20;97.60
17007;DHT22;8620;51.168;4.154;2023-06-26T12:24:50;28.00;97.30
17007;DHT22;8620;51.168;4.154;2023-06-26T12:27:20;28.00;97.20
17007;DHT22;8620;51.168;4.154;2023-06-26T12:29:53;27.90;97.00
17007;DHT22;8620;51.168;4.154;2023-06-26T12:32:23;27.60;97.50
17007;DHT22;8620;51.168;4.154;2023-06-26T12:34:50;27.40;97.50
17007;DHT22;8620;51.168;4.154;2023-06-26T12:37:21;27.60;97.20
17007;DHT22;8620;51.168;4.154;2023-06-26T12:39:52;27.10;96.60
17007;DHT22;8620;51.168;4.154;2023-06-26T12:42:22;26.30;98.20
17007;DHT22;8620;51.168;4.154;2023-06-26T12:44:50;27.10;97.10
17007;DHT22;8620;51.168;4.154;2023-06-26T12:47:27;27.60;97.10
17007;DHT22;8620;51.168;4.154;2023-06-26T12:49:57;26.60;96.60
17007;DHT22;8620;51.168;4.154;2023-06-26T12:52:30;26.30;97.60
17007;DHT22;8620;51.168;4.154;2023-06-26T12:55:24;26.60;97.60
17007;DHT22;8620;51.168;4.154;2023-06-26T12:58:00;26.90;97.20
17007;DHT22;8620;51.168;4.154;2023-06-26T13:00:29;27.20;97.60
17007;DHT22;8620;51.168;4.154;2023-06-26T13:03:12;27.60;97.20
17007;DHT22;8620;51.168;4.154;2023-06-26T13:05:58;27.80;96.90
17007;DHT22;8620;51.168;4.154;2023-06-26T13:08:46;26.80;97.60
17007;DHT22;8620;51.168;4.154;2023-06-26T13:11:12;25.70;96.50
17007;DHT22;8620;51.168;4.154;2023-06-26T13:14:03;25.20;97.80
17007;DHT22;8620;51.168;4.154;2023-06-26T13:16:49;26.20;97.70
17007;DHT22;8620;51.168;4.154;2023-06-26T13:19:21;26.90;98.20
17007;DHT22;8620;51.168;4.154;2023-06-26T13:21:51;27.30;98.30
17007;DHT22;8620;51.168;4.154;2023-06-26T13:24:20;27.50;98.50
17007;DHT22;8620;51.168;4.154;2023-06-26T13:26:56;27.50;98.40
17007;DHT22;8620;51.168;4.154;2023-06-26T13:29:33;27.70;98.10
17007;DHT22;8620;51.168;4.154;2023-06-26T13:32:21;27.40;98.00
17007;DHT22;8620;51.168;4.154;2023-06-26T13:35:10;27.30;98.20
17007;DHT22;8620;51.168;4.154;2023-06-26T13:37:39;27.40;97.40
17007;DHT22;8620;51.168;4.154;2023-06-26T13:40:11;27.40;98.20
17007;DHT22;8620;51.168;4.154;2023-06-26T13:42:49;27.50;97.20
17007;DHT22;8620;51.168;4.154;2023-06-26T13:45:46;27.10;97.90
17007;DHT22;8620;51.168;4.154;2023-06-26T13:48:21;27.30;97.50
17007;DHT22;8620;51.168;4.154;2023-06-26T13:50:55;27.40;97.00
17007;DHT22;8620;51.168;4.154;2023-06-26T13:53:22;27.10;96.20
17007;DHT22;8620;51.168;4.154;2023-06-26T13:55:50;26.90;98.10
17007;DHT22;8620;51.168;4.154;2023-06-26T13:58:22;26.80;96.40
17007;DHT22;8620;51.168;4.154;2023-06-26T14:01:15;26.90;97.00
17007;DHT22;8620;51.168;4.154;2023-06-26T14:03:41;26.80;96.30
17007;DHT22;8620;51.168;4.154;2023-06-26T14:06:07;26.60;97.20
17007;DHT22;8620;51.168;4.154;2023-06-26T14:08:38;26.90;97.20
17007;DHT22;8620;51.168;4.154;2023-06-26T14:11:13;27.20;98.60
17007;DHT22;8620;51.168;4.154;2023-06-26T14:13:44;26.40;99.90
17007;DHT22;8620;51.168;4.154;2023-06-26T14:16:13;25.40;99.90
17007;DHT22;8620;51.168;4.154;2023-06-26T14:18:40;25.10;99.90
17007;DHT22;8620;51.168;4.154;2023-06-26T14:21:09;25.20;99.90
17007;DHT22;8620;51.168;4.154;2023-06-26T14:23:44;25.20;99.90
17007;DHT22;8620;51.168;4.154;2023-06-26T14:26:24;25.10;99.90
17007;DHT22;8620;51.168;4.154;2023-06-26T14:28:56;25.00;99.90
17007;DHT22;8620;51.168;4.154;2023-06-26T14:31:22;24.70;99.90
17007;DHT22;8620;51.168;4.154;2023-06-26T14:33:50;24.60;99.90
17007;DHT22;8620;51.168;4.154;2023-06-26T14:36:16;25.00;99.90
17007;DHT22;8620;51.168;4.154;2023-06-26T14:38:45;25.60;99.90
17007;DHT22;8620;51.168;4.154;2023-06-26T14:41:15;25.80;99.90
17007;DHT22;8620;51.168;4.154;2023-06-26T14:44:04;26.00;99.90
17007;DHT22;8620;51.168;4.154;2023-06-26T14:47:11;25.70;99.90
17007;DHT22;8620;51.168;4.154;2023-06-26T14:49:57;25.50;99.90
17007;DHT22;8620;51.168;4.154;2023-06-26T14:56:51;25.90;99.90
17007;DHT22;8620;51.168;4.154;2023-06-26T14:59:46;26.10;99.90
17007;DHT22;8620;51.168;4.154;2023-06-26T15:02:42;26.10;99.90
17007;DHT22;8620;51.168;4.154;2023-06-26T15:06:03;26.20;99.90
17007;DHT22;8620;51.168;4.154;2023-06-26T15:08:54;25.90;99.90
17007;DHT22;8620;51.168;4.154;2023-06-26T15:11:48;25.60;99.90
17007;DHT22;8620;51.168;4.154;2023-06-26T15:14:56;25.20;99.90
17007;DHT22;8620;51.168;4.154;2023-06-26T15:17:57;25.20;99.90
17007;DHT22;8620;51.168;4.154;2023-06-26T15:21:01;25.20;99.90
17007;DHT22;8620;51.168;4.154;2023-06-26T15:24:06;24.60;99.90
17007;DHT22;8620;51.168;4.154;2023-06-26T15:26:50;24.90;99.90
17007;DHT22;8620;51.168;4.154;2023-06-26T15:29:40;24.60;99.90
17007;DHT22;8620;51.168;4.154;2023-06-26T15:33:02;24.90;99.90
17007;DHT22;8620;51.168;4.154;2023-06-26T15:36:06;24.90;99.90
17007;DHT22;8620;51.168;4.154;2023-06-26T15:39:10;24.80;99.90
17007;DHT22;8620;51.168;4.154;2023-06-26T15:41:55;24.70;99.90
17007;DHT22;8620;51.168;4.154;2023-06-26T15:44:58;24.60;99.90
17007;DHT22;8620;51.168;4.154;2023-06-26T15:51:08;24.40;99.90
17007;DHT22;8620;51.168;4.154;2023-06-26T15:53:56;24.40;99.90
17007;DHT22;8620;51.168;4.154;2023-06-26T15:56:57;24.60;99.90
17007;DHT22;8620;51.168;4.154;2023-06-26T16:00:08;24.10;99.90
17007;DHT22;8620;51.168;4.154;2023-06-26T16:02:57;23.60;99.90
17007;DHT22;8620;51.168;4.154;2023-06-26T16:09:23;24.00;99.90
17007;DHT22;8620;51.168;4.154;2023-06-26T16:12:16;24.10;99.90
17007;DHT22;8620;51.168;4.154;2023-06-26T16:15:11;23.90;99.90
17007;DHT22;8620;51.168;4.154;2023-06-26T16:18:08;24.00;99.90
17007;DHT22;8620;51.168;4.154;2023-06-26T16:21:20;24.10;99.90
17007;DHT22;8620;51.168;4.154;2023-06-26T16:27:13;23.60;99.90
17007;DHT22;8620;51.168;4.154;2023-06-26T16:30:20;23.80;99.90
17007;DHT22;8620;51.168;4.154;2023-06-26T16:33:14;24.10;99.90
17007;DHT22;8620;51.168;4.154;2023-06-26T16:36:35;24.20;99.90
17007;DHT22;8620;51.168;4.154;2023-06-26T16:39:36;24.40;99.90
17007;DHT22;8620;51.168;4.154;2023-06-26T16:42:40;24.70;99.90
17007;DHT22;8620;51.168;4.154;2023-06-26T16:48:50;24.20;99.90
17007;DHT22;8620;51.168;4.154;2023-06-26T16:51:46;23.80;99.90
17007;DHT22;8620;51.168;4.154;2023-06-26T16:54:37;23.60;99.90
17007;DHT22;8620;51.168;4.154;2023-06-26T16:57:46;23.50;99.90
17007;DHT22;8620;51.168;4.154;2023-06-26T17:01:07;23.60;99.90
17007;DHT22;8620;51.168;4.154;2023-06-26T17:04:13;23.50;99.90
17007;DHT22;8620;51.168;4.154;2023-06-26T17:07:13;23.60;99.90
17007;DHT22;8620;51.168;4.154;2023-06-26T17:10:05;23.20;99.90
17007;DHT22;8620;51.168;4.154;2023-06-26T17:13:28;23.00;99.90
17007;DHT22;8620;51.168;4.154;2023-06-26T17:16:30;23.50;99.90
17007;DHT22;8620;51.168;4.154;2023-06-26T17:19:19;23.60;99.90
17007;DHT22;8620;51.168;4.154;2023-06-26T17:21:55;23.90;99.90
17007;DHT22;8620;51.168;4.154;2023-06-26T17:25:18;24.10;99.90
17007;DHT22;8620;51.168;4.154;2023-06-26T17:28:04;24.30;99.90
17007;DHT22;8620;51.168;4.154;2023-06-26T17:31:16;24.50;99.90
17007;DHT22;8620;51.168;4.154;2023-06-26T17:37:29;24.30;99.90
17007;DHT22;8620;51.168;4.154;2023-06-26T17:47:05;23.50;99.90
17007;DHT22;8620;51.168;4.154;2023-06-26T17:54:11;23.50;99.90
17007;DHT22;8620;51.168;4.154;2023-06-26T17:57:32;23.80;99.90
17007;DHT22;8620;51.168;4.154;2023-06-26T18:04:20;23.60;99.90
17007;DHT22;8620;51.168;4.154;2023-06-26T18:07:44;23.70;99.90
17007;DHT22;8620;51.168;4.154;2023-06-26T18:10:50;23.80;99.90
17007;DHT22;8620;51.168;4.154;2023-06-26T18:13:57;23.90;99.90
17007;DHT22;8620;51.168;4.154;2023-06-26T18:17:02;24.00;99.90
17007;DHT22;8620;51.168;4.154;2023-06-26T18:20:14;23.40;99.90
17007;DHT22;8620;51.168;4.154;2023-06-26T18:23:38;23.50;99.90
17007;DHT22;8620;51.168;4.154;2023-06-26T18:26:33;23.70;99.90
17007;DHT22;8620;51.168;4.154;2023-06-26T18:29:31;23.70;99.90
17007;DHT22;8620;51.168;4.154;2023-06-26T18:32:36;23.70;99.90
17007;DHT22;8620;51.168;4.154;2023-06-26T18:35:28;23.60;99.90
17007;DHT22;8620;51.168;4.154;2023-06-26T18:38:31;23.40;99.90
17007;DHT22;8620;51.168;4.154;2023-06-26T18:41:33;23.30;99.90
17007;DHT22;8620;51.168;4.154;2023-06-26T18:44:51;23.20;99.90
17007;DHT22;8620;51.168;4.154;2023-06-26T18:48:13;23.20;99.90
17007;DHT22;8620;51.168;4.154;2023-06-26T18:51:14;23.30;99.90
17007;DHT22;8620;51.168;4.154;2023-06-26T18:54:15;23.00;99.90
17007;DHT22;8620;51.168;4.154;2023-06-26T18:57:42;23.10;99.90
17007;DHT22;8620;51.168;4.154;2023-06-26T19:01:03;22.60;99.90
17007;DHT22;8620;51.168;4.154;2023-06-26T19:04:12;22.90;99.90
17007;DHT22;8620;51.168;4.154;2023-06-26T19:10:54;23.20;99.90
17007;DHT22;8620;51.168;4.154;2023-06-26T19:14:17;23.10;99.90
17007;DHT22;8620;51.168;4.154;2023-06-26T19:20:18;23.00;99.90
17007;DHT22;8620;51.168;4.154;2023-06-26T19:23:24;23.10;99.90
17007;DHT22;8620;51.168;4.154;2023-06-26T19:26:39;23.00;99.90
17007;DHT22;8620;51.168;4.154;2023-06-26T19:29:35;23.00;99.90
17007;DHT22;8620;51.168;4.154;2023-06-26T19:32:32;22.90;99.90
17007;DHT22;8620;51.168;4.154;2023-06-26T19:35:38;22.80;99.90
17007;DHT22;8620;51.168;4.154;2023-06-26T19:41:51;22.50;99.90
17007;DHT22;8620;51.168;4.154;2023-06-26T19:44:54;22.60;99.90
17007;DHT22;8620;51.168;4.154;2023-06-26T19:47:58;22.70;99.90
17007;DHT22;8620;51.168;4.154;2023-06-26T19:51:04;22.60;99.90
17007;DHT22;8620;51.168;4.154;2023-06-26T19:53:53;22.60;99.90
17007;DHT22;8620;51.168;4.154;2023-06-26T19:56:54;22.30;99.90
17007;DHT22;8620;51.168;4.154;2023-06-26T20:00:00;21.90;99.90
17007;DHT22;8620;51.168;4.154;2023-06-26T20:02:54;22.00;99.90
17007;DHT22;8620;51.168;4.154;2023-06-26T20:05:41;21.90;99.90
17007;DHT22;8620;51.168;4.154;2023-06-26T20:08:49;21.90;99.90
17007;DHT22;8620;51.168;4.154;2023-06-26T20:11:43;22.00;99.90
17007;DHT22;8620;51.168;4.154;2023-06-26T20:14:47;21.80;99.90
17007;DHT22;8620;51.168;4.154;2023-06-26T20:17:38;21.80;99.90
17007;DHT22;8620;51.168;4.154;2023-06-26T20:20:27;21.70;99.90
17007;DHT22;8620;51.168;4.154;2023-06-26T20:23:34;21.50;99.90
17007;DHT22;8620;51.168;4.154;2023-06-26T20:26:48;21.10;99.90
17007;DHT22;8620;51.168;4.154;2023-06-26T20:29:33;20.90;99.90
17007;DHT22;8620;51.168;4.154;2023-06-26T20:32:35;20.60;99.90
17007;DHT22;8620;51.168;4.154;2023-06-26T20:35:42;20.50;99.90
17007;DHT22;8620;51.168;4.154;2023-06-26T20:38:46;20.60;99.90
17007;DHT22;8620;51.168;4.154;2023-06-26T20:41:40;20.30;99.90
17007;DHT22;8620;51.168;4.154;2023-06-26T20:44:48;20.40;99.90
17007;DHT22;8620;51.168;4.154;2023-06-26T20:47:33;20.40;99.90
17007;DHT22;8620;51.168;4.154;2023-06-26T20:50:29;20.30;99.90
17007;DHT22;8620;51.168;4.154;2023-06-26T20:57:09;20.30;99.90
